Time;durP1;ratioP1;P1;durP2;ratioP2;P2;SDS_P1;SDS_P2;PMS_P1;PMS_P2;Temp;Humidity;BMP_temperature;BMP_pressure;BME280_temperature;BME280_humidity;BME280_pressure;Samples;Min_cycle;Max_cycle;Signal;HPM_P1;HPM_P2
2021/01/25 09:11:15;;;;;;;22.57;9.00;;;;;;;0.67;74.68;96975.20;120302;1112;104455;-76
2021/01/25 09:13:42;;;;;;;22.43;9.77;;;;;;;0.68;74.94;96985.58;120119;1150;104459;-77
2021/01/25 09:16:10;;;;;;;24.33;9.80;;;;;;;0.72;75.27;96983.59;120149;1150;104374;-74
2021/01/25 09:18:37;;;;;;;25.20;10.15;;;;;;;0.74;74.97;96979.95;120236;1150;104502;-73
2021/01/25 09:21:04;;;;;;;27.13;12.37;;;;;;;0.76;75.27;96979.01;120069;1150;104375;-75
2021/01/25 09:23:31;;;;;;;27.47;12.57;;;;;;;0.77;74.71;96970.22;120110;1150;104468;-73
2021/01/25 09:25:59;;;;;;;28.67;13.37;;;;;;;0.80;75.26;96972.63;120081;1150;104460;-74
2021/01/25 09:28:26;;;;;;;26.97;12.73;;;;;;;0.82;74.84;96971.58;120239;1149;104856;-71
2021/01/25 09:30:53;;;;;;;28.27;12.55;;;;;;;0.83;75.07;96964.55;120212;1151;104352;-71
2021/01/25 09:33:20;;;;;;;28.03;12.90;;;;;;;0.83;74.96;96968.02;120094;1150;104435;-71
2021/01/25 09:35:48;;;;;;;26.67;12.90;;;;;;;0.86;74.96;96975.67;120176;1150;104450;-75
2021/01/25 09:38:15;;;;;;;25.87;12.83;;;;;;;0.89;75.35;96982.46;120150;1150;104348;-75
2021/01/25 09:40:42;;;;;;;30.88;14.73;;;;;;;0.94;74.74;96984.80;120176;1150;104486;-74
2021/01/25 09:43:09;;;;;;;24.67;11.30;;;;;;;0.94;74.82;96977.77;120121;1151;104436;-76
2021/01/25 09:45:36;;;;;;;28.97;14.30;;;;;;;0.91;74.75;96975.34;120293;1149;104364;-76
2021/01/25 09:48:04;;;;;;;32.37;14.67;;;;;;;0.91;75.12;96982.37;120112;1150;104396;-77
2021/01/25 09:50:34;;;;;;;32.70;14.60;;;;;;;0.92;75.26;96973.59;120030;1151;104454;-74
2021/01/25 09:53:03;;;;;;;26.97;14.07;;;;;;;0.93;75.28;96983.94;120138;1150;104438;-73
2021/01/25 09:55:30;;;;;;;32.07;14.90;;;;;;;0.95;75.31;96984.67;120125;1150;104381;-73
2021/01/25 09:57:57;;;;;;;32.53;16.45;;;;;;;0.95;75.20;96996.94;120157;1150;104568;-71
2021/01/25 10:00:25;;;;;;;33.77;16.07;;;;;;;0.94;75.18;96993.47;120120;1150;104351;-77
2021/01/25 10:02:52;;;;;;;36.10;18.25;;;;;;;0.95;75.56;96991.70;120120;1150;104354;-76
2021/01/25 10:05:20;;;;;;;32.03;17.47;;;;;;;0.92;75.15;96994.52;120156;1150;104487;-74
2021/01/25 10:07:50;;;;;;;34.80;18.67;;;;;;;0.84;74.79;96982.78;120154;1150;104451;-75
2021/01/25 10:10:25;;;;;;;33.37;17.30;;;;;;;0.78;74.96;96991.04;120237;1150;104464;-74
2021/01/25 10:12:52;;;;;;;33.27;17.23;;;;;;;0.71;75.09;96988.00;120264;1150;104445;-73
2021/01/25 10:15:21;;;;;;;34.00;17.70;;;;;;;0.69;74.64;96989.87;120143;1150;104345;-74
2021/01/25 10:17:51;;;;;;;33.33;16.97;;;;;;;0.67;75.07;96989.14;120192;1149;104492;-71
2021/01/25 10:20:22;;;;;;;31.97;15.33;;;;;;;0.71;74.88;96984.53;120177;1151;104458;-70
2021/01/25 10:22:50;;;;;;;28.27;14.30;;;;;;;0.68;74.92;96982.11;120157;1150;104924;-71
2021/01/25 10:25:18;;;;;;;32.50;16.87;;;;;;;0.66;75.25;96987.45;120054;1150;104460;-70
2021/01/25 10:27:46;;;;;;;35.97;18.20;;;;;;;0.67;75.25;96985.66;120149;1150;104528;-73
2021/01/25 10:30:19;;;;;;;36.77;19.07;;;;;;;0.68;75.12;96989.96;120114;1151;104466;-71
2021/01/25 10:32:47;;;;;;;34.83;16.60;;;;;;;0.69;75.46;96981.17;120188;1150;104420;-71
2021/01/25 10:35:17;;;;;;;34.97;18.07;;;;;;;0.71;74.83;96987.14;120123;1150;104490;-73
2021/01/25 10:37:48;;;;;;;37.50;18.93;;;;;;;0.71;75.02;96987.14;120244;1150;104415;-75
2021/01/25 10:40:26;;;;;;;39.47;22.47;;;;;;;0.70;75.23;96975.86;120145;1150;104940;-72
2021/01/25 10:42:56;;;;;;;37.80;19.17;;;;;;;0.68;75.24;96977.73;120122;1149;104380;-74
2021/01/25 10:45:23;;;;;;;34.63;18.50;;;;;;;0.68;75.33;96974.26;120146;1149;104374;-73
2021/01/25 10:47:52;;;;;;;33.43;17.63;;;;;;;0.71;74.87;96974.91;120010;1148;104845;-74
2021/01/25 10:50:21;;;;;;;35.20;18.37;;;;;;;0.72;74.89;96968.74;120072;1150;104377;-73
2021/01/25 10:52:49;;;;;;;32.73;16.47;;;;;;;0.69;75.15;96973.32;120027;1150;104429;-74
2021/01/25 10:55:17;;;;;;;32.90;16.83;;;;;;;0.71;75.20;96981.91;119993;1150;104496;-74
2021/01/25 10:57:44;;;;;;;36.33;17.63;;;;;;;0.72;75.57;96975.73;119784;1150;104388;-74
2021/01/25 11:00:14;;;;;;;33.23;17.03;;;;;;;0.72;75.10;96975.73;120047;1150;104449;-73
2021/01/25 11:02:42;;;;;;;36.87;18.13;;;;;;;0.73;75.31;96978.27;120050;1151;104442;-75
2021/01/25 11:05:10;;;;;;;34.07;17.70;;;;;;;0.76;75.27;96979.01;120055;1150;104470;-76
2021/01/25 11:07:39;;;;;;;33.47;17.33;;;;;;;0.76;75.21;96976.39;120062;1150;104459;-74
2021/01/25 11:10:09;;;;;;;32.77;17.90;;;;;;;0.74;75.23;96981.70;119930;1150;104346;-73
2021/01/25 11:12:36;;;;;;;34.97;17.80;;;;;;;0.75;75.13;96972.92;120106;1150;104428;-74
2021/01/25 11:15:06;;;;;;;32.93;18.00;;;;;;;0.73;75.46;96972.19;120046;1150;104420;-73
2021/01/25 11:17:33;;;;;;;36.77;19.20;;;;;;;0.73;75.07;96967.80;120127;1150;104442;-74
2021/01/25 11:20:07;;;;;;;37.33;20.57;;;;;;;0.73;75.55;96975.66;120081;1150;104395;-72
2021/01/25 11:22:34;;;;;;;37.13;18.02;;;;;;;0.69;75.02;96970.70;120045;1150;104450;-72
2021/01/25 11:25:02;;;;;;;36.43;19.07;;;;;;;0.69;75.38;96966.33;120089;1150;104362;-74
2021/01/25 11:27:30;;;;;;;33.73;18.93;;;;;;;0.67;75.21;96973.44;120006;1150;104473;-73
2021/01/25 11:29:57;;;;;;;36.40;19.90;;;;;;;0.67;75.24;96975.20;120066;1150;104348;-73
2021/01/25 11:32:25;;;;;;;34.77;19.00;;;;;;;0.63;75.22;96963.25;119997;1151;104513;-72
2021/01/25 11:34:53;;;;;;;36.90;19.85;;;;;;;0.60;75.47;96974.78;120011;1150;105001;-73
2021/01/25 11:37:19;;;;;;;35.17;17.77;;;;;;;0.59;75.25;96973.09;120127;1150;104356;-74
2021/01/25 11:39:47;;;;;;;41.57;20.93;;;;;;;0.59;75.68;96984.42;120139;1150;104495;-74
2021/01/25 11:42:14;;;;;;;37.93;18.93;;;;;;;0.54;75.46;96969.94;120134;1150;104356;-74
2021/01/25 11:44:41;;;;;;;35.10;18.47;;;;;;;0.52;75.30;96964.83;120123;1151;104455;-76
2021/01/25 11:47:07;;;;;;;36.48;18.77;;;;;;;0.49;75.32;96953.70;120190;1151;104509;-74
2021/01/25 11:49:35;;;;;;;36.27;19.97;;;;;;;0.45;75.41;96953.08;120093;1149;104377;-75
2021/01/25 11:52:05;;;;;;;39.98;20.68;;;;;;;0.43;75.48;96965.42;120079;1151;104488;-74
2021/01/25 11:54:33;;;;;;;37.23;19.97;;;;;;;0.43;75.35;96965.42;120045;1151;104525;-76
2021/01/25 11:57:00;;;;;;;36.50;19.50;;;;;;;0.44;75.70;96970.53;120105;1150;104450;-75
2021/01/25 11:59:27;;;;;;;37.58;19.55;;;;;;;0.44;75.87;96972.33;120085;1150;104544;-76
2021/01/25 12:01:54;;;;;;;38.17;19.37;;;;;;;0.46;75.68;96977.45;120197;1150;104369;-75
2021/01/25 12:04:24;;;;;;;40.70;20.67;;;;;;;0.48;75.60;96967.72;120184;1150;104522;-74
2021/01/25 12:06:53;;;;;;;42.70;23.00;;;;;;;0.49;75.69;96980.72;120110;1150;104529;-74
2021/01/25 12:09:23;;;;;;;39.70;22.43;;;;;;;0.48;75.79;96972.95;120119;1149;104352;-74
2021/01/25 12:11:53;;;;;;;41.93;23.97;;;;;;;0.47;75.26;96979.98;120158;1150;104353;-75
2021/01/25 12:14:20;;;;;;;40.37;21.60;;;;;;;0.45;75.70;96976.63;120128;1150;104454;-75
2021/01/25 12:16:47;;;;;;;42.00;22.83;;;;;;;0.46;75.75;96980.92;120133;1150;104351;-74
2021/01/25 12:19:14;;;;;;;43.17;24.80;;;;;;;0.45;75.80;96987.09;120166;1151;105027;-74
2021/01/25 12:21:45;;;;;;;43.40;24.25;;;;;;;0.47;75.71;96998.29;120131;1150;104369;-75
2021/01/25 12:24:13;;;;;;;42.77;24.07;;;;;;;0.48;75.45;97004.34;120187;1150;104460;-74
2021/01/25 12:26:40;;;;;;;42.03;23.60;;;;;;;0.48;75.88;97002.59;120252;1150;104445;-74
2021/01/25 12:29:07;;;;;;;46.97;26.33;;;;;;;0.51;75.76;97010.23;120059;1150;104378;-75
2021/01/25 12:31:35;;;;;;;44.57;24.67;;;;;;;0.52;75.85;97003.21;120284;1150;104967;-75
2021/01/25 12:34:03;;;;;;;47.80;25.43;;;;;;;0.50;75.70;97021.64;120217;1150;104390;-73
2021/01/25 12:36:30;;;;;;;43.93;25.70;;;;;;;0.51;75.72;97025.94;120093;1151;104351;-75
2021/01/25 12:38:57;;;;;;;42.97;24.97;;;;;;;0.54;75.82;97027.50;120202;1151;104369;-75
2021/01/25 12:41:25;;;;;;;47.70;27.23;;;;;;;0.55;75.85;97019.56;120197;1150;104423;-76
2021/01/25 12:43:54;;;;;;;42.73;24.27;;;;;;;0.56;75.68;97033.47;120166;1150;104383;-76
2021/01/25 12:46:21;;;;;;;45.60;25.30;;;;;;;0.56;76.12;97042.17;120213;1150;104390;-77
2021/01/25 12:48:49;;;;;;;44.93;25.17;;;;;;;0.59;76.04;97035.89;120185;1150;104365;-75
2021/01/25 12:51:16;;;;;;;42.50;23.03;;;;;;;0.57;76.06;97033.39;120212;1150;104372;-76
2021/01/25 12:53:43;;;;;;;45.33;25.13;;;;;;;0.58;75.71;97026.36;120235;1151;104381;-77
2021/01/25 12:56:10;;;;;;;43.23;24.83;;;;;;;0.57;76.12;97032.53;120177;1151;104348;-77
2021/01/25 12:58:37;;;;;;;44.23;24.92;;;;;;;0.54;76.07;97036.20;120097;1151;104426;-75
2021/01/25 13:01:04;;;;;;;43.00;24.13;;;;;;;0.53;75.74;97044.98;120163;1150;104343;-76
2021/01/25 13:03:36;;;;;;;45.50;25.75;;;;;;;0.51;76.02;97033.78;120133;1151;104396;-76
2021/01/25 13:06:04;;;;;;;50.33;26.73;;;;;;;0.51;75.95;97040.77;120157;1150;103236;-75
2021/01/25 13:08:31;;;;;;;49.53;27.42;;;;;;;0.52;76.20;97040.69;120109;1150;104348;-75
2021/01/25 13:10:58;;;;;;;47.60;26.27;;;;;;;0.51;75.88;97046.00;120079;1150;104542;-80
2021/01/25 13:13:26;;;;;;;50.50;29.30;;;;;;;0.49;76.60;97051.35;120094;1150;104451;-78
2021/01/25 13:15:53;;;;;;;44.93;25.15;;;;;;;0.47;75.99;97047.99;120110;1150;104436;-78
2021/01/25 13:18:21;;;;;;;49.23;28.50;;;;;;;0.48;76.22;97064.52;120139;1150;104362;-76
2021/01/25 13:20:49;;;;;;;46.77;25.00;;;;;;;0.48;76.31;97072.36;120086;1150;104480;-75
2021/01/25 13:23:17;;;;;;;48.03;26.87;;;;;;;0.46;75.76;97069.00;120118;1149;104365;-73
2021/01/25 13:25:46;;;;;;;48.70;28.13;;;;;;;0.44;75.94;97063.88;120175;1150;104441;-75
2021/01/25 13:28:14;;;;;;;49.87;28.80;;;;;;;0.44;76.17;97071.73;120133;1150;104447;-76
2021/01/25 13:30:42;;;;;;;50.53;29.57;;;;;;;0.43;76.36;97068.26;120178;1150;104536;-76
2021/01/25 13:33:13;;;;;;;51.37;28.63;;;;;;;0.44;76.14;97056.03;120143;1150;104366;-78
2021/01/25 13:35:41;;;;;;;45.10;27.47;;;;;;;0.43;76.23;97064.81;120087;1150;104431;-77
2021/01/25 13:38:09;;;;;;;47.37;27.13;;;;;;;0.42;76.01;97069.19;120143;1150;104490;-74
2021/01/25 13:40:39;;;;;;;50.67;26.57;;;;;;;0.38;75.99;97082.58;120099;1150;104473;-73
2021/01/25 13:43:07;;;;;;;42.57;21.80;;;;;;;0.36;75.97;97087.92;120223;1150;104342;-73
2021/01/25 13:45:40;;;;;;;47.35;25.20;;;;;;;0.33;76.05;97098.57;120117;1150;104540;-73
2021/01/25 13:48:13;;;;;;;46.43;27.17;;;;;;;0.28;75.73;97104.07;120070;1150;103228;-72
2021/01/25 13:50:41;;;;;;;46.90;26.00;;;;;;;0.24;76.06;97097.34;120140;1150;104429;-76
2021/01/25 13:53:11;;;;;;;45.93;25.93;;;;;;;0.23;76.48;97103.52;120158;1150;104407;-75
2021/01/25 13:55:38;;;;;;;47.93;26.70;;;;;;;0.22;76.55;97104.45;120062;1150;104441;-75
2021/01/25 13:58:11;;;;;;;47.83;25.73;;;;;;;0.23;76.09;97103.52;120078;1150;104712;-78
2021/01/25 14:00:39;;;;;;;47.83;27.20;;;;;;;0.20;76.21;97103.73;120147;1150;104351;-74
2021/01/25 14:03:10;;;;;;;49.43;28.97;;;;;;;0.20;76.54;97101.12;120225;1149;104467;-78
2021/01/25 14:05:37;;;;;;;49.17;27.70;;;;;;;0.18;76.53;97117.81;120241;1150;104444;-73
2021/01/25 14:08:05;;;;;;;51.40;29.70;;;;;;;0.15;76.14;97111.02;120187;1150;104838;-76
2021/01/25 14:10:35;;;;;;;52.43;29.73;;;;;;;0.16;76.80;97107.47;120168;1150;104340;-75
2021/01/25 14:13:04;;;;;;;54.17;30.93;;;;;;;0.18;76.70;97102.13;120102;1150;104369;-73
2021/01/25 14:15:37;;;;;;;48.90;27.37;;;;;;;0.20;75.98;97105.49;120139;1150;104360;-74
2021/01/25 14:18:04;;;;;;;49.13;27.67;;;;;;;0.23;76.48;97113.15;120140;1150;104487;-74
2021/01/25 14:20:35;;;;;;;52.80;30.83;;;;;;;0.23;76.83;97121.81;120172;1150;104401;-81
2021/01/25 14:23:03;;;;;;;42.87;23.73;;;;;;;0.23;76.12;97123.61;120173;1149;104510;-74
2021/01/25 14:25:30;;;;;;;49.17;26.87;;;;;;;0.19;76.38;97125.59;120316;1150;104320;-75
2021/01/25 14:28:09;;;;;;;49.80;28.95;;;;;;;0.19;76.50;97133.43;120108;1150;104457;-75
2021/01/25 14:30:45;;;;;;;46.63;26.30;;;;;;;0.18;76.36;97139.59;120007;1150;104660;-75
2021/01/25 14:33:17;;;;;;;49.23;24.40;;;;;;;0.17;76.63;97153.59;120060;1151;104381;-72
2021/01/25 14:35:47;;;;;;;;;;;;;;;0.19;76.27;97163.95;120281;1150;104457;-73
2021/01/25 14:38:18;;;;;;;52.90;28.43;;;;;;;0.16;76.63;97166.75;120194;1150;104553;-73
2021/01/25 14:40:45;;;;;;;50.70;27.87;;;;;;;0.14;76.38;97177.31;120238;1151;104460;-72
2021/01/25 14:43:15;;;;;;;49.93;25.90;;;;;;;0.15;76.88;97179.00;120223;1150;104394;-72
2021/01/25 14:45:46;;;;;;;53.07;29.57;;;;;;;0.14;76.52;97175.53;120298;1150;104529;-73
2021/01/25 14:48:13;;;;;;;51.27;26.37;;;;;;;0.14;76.56;97172.09;120203;1151;104425;-71
2021/01/25 14:50:41;;;;;;;49.17;27.33;;;;;;;0.13;76.52;97181.69;120066;1150;104959;-72
2021/01/25 14:53:08;;;;;;;50.70;26.57;;;;;;;0.13;76.70;97186.92;120124;1150;104423;-73
2021/01/25 14:55:35;;;;;;;45.60;26.37;;;;;;;0.13;76.65;97193.94;120055;1150;104358;-73
2021/01/25 14:58:03;;;;;;;47.60;25.97;;;;;;;0.13;76.81;97207.01;120159;1150;104537;-75
2021/01/25 15:00:31;;;;;;;45.93;22.23;;;;;;;0.09;76.45;97201.11;120130;1150;104445;-73
2021/01/25 15:03:01;;;;;;;47.27;23.47;;;;;;;0.08;76.78;97203.83;120078;1151;104448;-74
2021/01/25 15:05:31;;;;;;;48.40;26.33;;;;;;;0.08;76.83;97203.83;120150;1150;104448;-76
2021/01/25 15:08:01;;;;;;;48.33;24.70;;;;;;;0.08;76.52;97211.67;120140;1150;104455;-75
2021/01/25 15:10:29;;;;;;;55.33;27.33;;;;;;;0.05;76.93;97202.22;120144;1151;104464;-73
2021/01/25 15:12:58;;;;;;;53.00;28.47;;;;;;;0.05;76.62;97201.39;120120;1150;104489;-74
2021/01/25 15:15:27;;;;;;;48.70;26.40;;;;;;;0.07;76.68;97205.58;120115;1148;104412;-72
2021/01/25 15:17:57;;;;;;;47.67;25.17;;;;;;;0.07;76.99;97212.60;120135;1150;104414;-74
2021/01/25 15:20:31;;;;;;;47.10;26.20;;;;;;;0.07;76.60;97204.76;120104;1150;104350;-71
2021/01/25 15:23:00;;;;;;;43.20;23.43;;;;;;;0.06;76.36;97216.97;120114;1150;104447;-72
2021/01/25 15:25:42;;;;;;;48.45;25.15;;;;;;;0.05;77.20;97212.67;119597;1150;104368;-73
2021/01/25 15:28:10;;;;;;;38.50;19.83;;;;;;;0.06;77.00;97216.97;119898;1150;104345;-73
2021/01/25 15:30:37;;;;;;;41.37;20.97;;;;;;;0.04;76.53;97223.24;119995;1150;104420;-73
2021/01/25 15:33:04;;;;;;;37.47;20.87;;;;;;;0.01;76.32;97232.09;119988;1150;104447;-72
2021/01/25 15:35:33;;;;;;;41.10;21.40;;;;;;;-0.01;76.90;97232.19;119998;1151;104435;-74
2021/01/25 15:38:01;;;;;;;42.65;22.65;;;;;;;-0.01;76.48;97234.81;120038;1150;104601;-73
2021/01/25 15:40:28;;;;;;;38.10;20.03;;;;;;;0.01;76.85;97228.65;119956;1150;104509;-74
2021/01/25 15:42:55;;;;;;;39.63;21.63;;;;;;;0.02;77.31;97230.33;120052;1150;104407;-74
2021/01/25 15:45:25;;;;;;;38.90;18.97;;;;;;;0.03;76.57;97232.02;120074;1150;104378;-71
2021/01/25 15:47:52;;;;;;;37.60;20.10;;;;;;;0.02;76.95;97235.56;120048;1150;104500;-73
2021/01/25 15:50:20;;;;;;;37.27;17.47;;;;;;;0.01;76.93;97241.72;120033;1150;104484;-72
2021/01/25 15:52:49;;;;;;;40.03;21.53;;;;;;;0.01;76.71;97255.61;119895;1150;104434;-74
2021/01/25 15:55:20;;;;;;;38.00;18.53;;;;;;;0.02;77.27;97259.09;120036;1150;104420;-75
2021/01/25 15:57:47;;;;;;;40.50;20.70;;;;;;;0.01;77.15;97268.69;119947;1150;104956;-72
2021/01/25 16:00:17;;;;;;;41.60;19.53;;;;;;;0.02;76.62;97270.37;120027;1150;104487;-73
2021/01/25 16:02:45;;;;;;;41.40;20.37;;;;;;;0.02;76.93;97272.98;120114;1149;104572;-74
2021/01/25 16:05:13;;;;;;;40.20;19.50;;;;;;;0.03;76.86;97276.45;120161;1150;104464;-72
2021/01/25 16:07:40;;;;;;;41.60;19.47;;;;;;;-0.01;76.99;97273.19;120148;1150;104269;-73
2021/01/25 16:10:09;;;;;;;40.13;19.23;;;;;;;-0.02;77.21;97279.34;120107;1150;104457;-73
2021/01/25 16:12:38;;;;;;;39.20;20.33;;;;;;;-0.03;77.15;97280.28;122197;1149;102572;-74
2021/01/25 16:15:06;;;;;;;37.67;19.30;;;;;;;-0.01;76.95;97291.48;121144;1150;105058;-76
2021/01/25 16:17:41;;;;;;;36.67;16.57;;;;;;;-0.02;77.01;97285.41;120404;1150;104429;-74
2021/01/25 16:20:10;;;;;;;37.97;18.53;;;;;;;-0.02;77.12;97289.80;120068;1150;104411;-73
2021/01/25 16:22:39;;;;;;;43.47;20.97;;;;;;;-0.02;77.31;97295.86;120013;1150;104407;-74
2021/01/25 16:25:09;;;;;;;40.77;21.33;;;;;;;-0.04;77.17;97295.11;120144;1151;104458;-72
2021/01/25 16:27:39;;;;;;;40.47;20.30;;;;;;;-0.07;76.96;97290.05;120215;1150;104491;-73
2021/01/25 16:30:09;;;;;;;38.07;19.93;;;;;;;-0.06;76.88;97289.13;120103;1151;104352;-74
2021/01/25 16:32:37;;;;;;;39.27;20.53;;;;;;;-0.06;77.09;97293.52;120126;1150;104419;-74
2021/01/25 16:35:07;;;;;;;38.87;18.87;;;;;;;-0.05;76.79;97288.20;122190;1150;102096;-76
2021/01/25 16:37:35;;;;;;;34.25;15.80;;;;;;;-0.06;77.36;97289.13;122164;1150;102420;-75
2021/01/25 16:40:03;;;;;;;39.43;18.00;;;;;;;-0.08;77.03;97296.21;122221;1149;102354;-73
2021/01/25 16:42:31;;;;;;;34.63;17.00;;;;;;;-0.06;77.26;97296.14;122111;1150;102266;-72
2021/01/25 16:44:59;;;;;;;37.33;17.63;;;;;;;-0.07;76.63;97304.91;122147;1150;102241;-74
2021/01/25 16:47:26;;;;;;;35.60;17.50;;;;;;;-0.06;76.68;97310.03;121513;1149;103200;-74
2021/01/25 16:49:53;;;;;;;35.07;17.83;;;;;;;-0.05;76.95;97300.44;120229;1150;104525;-73
2021/01/25 16:52:21;;;;;;;33.50;16.30;;;;;;;-0.06;76.92;97293.52;120228;1150;104377;-73
2021/01/25 16:54:48;;;;;;;35.07;17.67;;;;;;;-0.07;77.37;97289.23;120165;1150;104503;-79
2021/01/25 16:57:15;;;;;;;34.70;16.33;;;;;;;-0.09;77.01;97288.47;120183;1150;104455;-77
2021/01/25 16:59:42;;;;;;;34.63;16.10;;;;;;;-0.11;76.64;97287.72;120171;1150;105023;-73
2021/01/25 17:02:12;;;;;;;36.13;18.47;;;;;;;-0.13;77.01;97298.25;120159;1150;104487;-73
2021/01/25 17:04:41;;;;;;;35.93;18.17;;;;;;;-0.14;77.50;97308.80;120161;1151;104394;-73
2021/01/25 17:07:08;;;;;;;38.53;18.90;;;;;;;-0.16;77.38;97312.34;120073;1150;104458;-75
2021/01/25 17:09:38;;;;;;;35.70;16.02;;;;;;;-0.16;77.43;97304.50;120107;1150;104443;-71
2021/01/25 17:12:07;;;;;;;37.60;17.35;;;;;;;-0.16;77.71;97301.03;120085;1150;104345;-70
2021/01/25 17:14:36;;;;;;;37.70;18.05;;;;;;;-0.16;77.51;97306.27;119974;1149;105189;-72
2021/01/25 17:17:04;;;;;;;39.20;18.95;;;;;;;-0.16;77.63;97293.20;120095;1150;104461;-72
2021/01/25 17:19:31;;;;;;;39.95;20.90;;;;;;;-0.17;76.89;97286.28;119992;1150;104380;-73
2021/01/25 17:21:58;;;;;;;42.73;22.27;;;;;;;-0.20;77.57;97287.31;119911;1150;105955;-72
2021/01/25 17:24:28;;;;;;;43.23;23.10;;;;;;;-0.19;77.53;97295.98;119706;1150;104375;-71
2021/01/25 17:26:56;;;;;;;41.40;19.97;;;;;;;-0.19;77.44;97296.84;122237;1149;102425;-72
2021/01/25 17:29:23;;;;;;;37.53;18.90;;;;;;;-0.18;77.53;97310.73;120138;1150;104524;-70
2021/01/25 17:31:59;;;;;;;42.87;21.37;;;;;;;-0.22;77.45;97317.09;119853;1150;104356;-71
2021/01/25 17:34:27;;;;;;;45.47;23.07;;;;;;;-0.24;77.02;97319.77;119874;1150;104388;-72
2021/01/25 17:36:54;;;;;;;36.93;17.37;;;;;;;-0.25;77.48;97319.88;119893;1150;104423;-72
2021/01/25 17:39:21;;;;;;;41.93;21.37;;;;;;;-0.26;77.43;97313.80;120032;1150;104367;-73
2021/01/25 17:41:49;;;;;;;40.93;20.87;;;;;;;-0.25;77.31;97306.81;119744;1150;104592;-73
2021/01/25 17:44:16;;;;;;;40.97;19.93;;;;;;;-0.26;77.61;97316.41;119958;1151;104420;-72
2021/01/25 17:46:44;;;;;;;38.37;17.27;;;;;;;-0.23;77.37;97312.80;120081;1150;104851;-73
2021/01/25 17:49:12;;;;;;;43.63;21.17;;;;;;;-0.24;77.50;97319.77;120077;1150;104452;-74
2021/01/25 17:51:39;;;;;;;40.50;21.50;;;;;;;-0.22;77.15;97314.48;120162;1150;104457;-75
2021/01/25 17:54:07;;;;;;;39.03;18.63;;;;;;;-0.22;77.53;97323.14;120069;1150;104395;-75
2021/01/25 17:56:34;;;;;;;39.30;19.97;;;;;;;-0.22;77.66;97323.14;120029;1150;104454;-76
2021/01/25 17:59:02;;;;;;;40.80;18.93;;;;;;;-0.23;77.85;97331.91;120005;1150;104435;-73
2021/01/25 18:01:29;;;;;;;43.55;21.40;;;;;;;-0.24;77.10;97322.39;119921;1150;104386;-75
2021/01/25 18:03:57;;;;;;;39.27;18.90;;;;;;;-0.22;77.55;97327.55;120071;1150;104375;-74
2021/01/25 18:06:24;;;;;;;37.35;15.83;;;;;;;-0.24;77.24;97324.17;120123;1150;105959;-73
2021/01/25 18:08:51;;;;;;;37.50;19.82;;;;;;;-0.26;78.07;97326.86;120077;1150;104370;-72
2021/01/25 18:11:18;;;;;;;40.07;21.70;;;;;;;-0.26;77.97;97329.47;119913;1149;104465;-74
2021/01/25 18:13:45;;;;;;;39.53;18.82;;;;;;;-0.26;77.41;97329.47;119995;1150;104348;-73
2021/01/25 18:16:12;;;;;;;43.30;22.50;;;;;;;-0.27;77.96;97337.41;120086;1150;104391;-74
2021/01/25 18:18:39;;;;;;;43.55;22.75;;;;;;;-0.25;77.97;97330.33;120117;1150;104573;-74
2021/01/25 18:21:07;;;;;;;39.70;19.40;;;;;;;-0.24;78.16;97334.63;120046;1150;104347;-72
2021/01/25 18:23:35;;;;;;;43.00;21.60;;;;;;;-0.24;78.10;97340.68;120086;1150;104489;-74
2021/01/25 18:26:02;;;;;;;35.53;17.80;;;;;;;-0.24;78.07;97337.23;120100;1150;104892;-74
2021/01/25 18:28:30;;;;;;;40.43;20.43;;;;;;;-0.25;78.07;97336.38;120020;1149;104505;-72
2021/01/25 18:30:58;;;;;;;37.50;20.03;;;;;;;-0.25;78.14;97340.78;120018;1149;104410;-72
2021/01/25 18:33:25;;;;;;;40.92;19.95;;;;;;;-0.28;77.34;97331.33;119932;1150;104413;-72
2021/01/25 18:35:53;;;;;;;37.67;18.20;;;;;;;-0.26;78.01;97345.15;120088;1149;104409;-72
2021/01/25 18:38:20;;;;;;;36.90;19.23;;;;;;;-0.26;77.59;97339.09;120152;1151;104381;-73
2021/01/25 18:40:49;;;;;;;41.60;20.17;;;;;;;-0.27;77.70;97335.63;120080;1150;104487;-73
2021/01/25 18:43:16;;;;;;;40.07;19.07;;;;;;;-0.25;77.35;97346.00;119999;1151;104345;-72
2021/01/25 18:45:46;;;;;;;36.47;18.03;;;;;;;-0.27;78.34;97342.64;120014;1151;104381;-72
2021/01/25 18:48:16;;;;;;;38.07;19.10;;;;;;;-0.26;77.53;97341.70;119986;1150;104908;-74
2021/01/25 18:50:45;;;;;;;37.00;17.53;;;;;;;-0.26;77.57;97345.15;120034;1150;104348;-74
2021/01/25 18:53:12;;;;;;;35.43;16.03;;;;;;;-0.27;77.67;97347.86;120187;1150;104356;-74
2021/01/25 18:55:39;;;;;;;39.25;19.25;;;;;;;-0.29;77.94;97349.72;120119;1150;104393;-74
2021/01/25 18:58:11;;;;;;;41.03;19.67;;;;;;;-0.28;77.88;97352.23;120070;1151;104796;-74
2021/01/25 19:00:40;;;;;;;35.80;16.97;;;;;;;-0.26;77.79;97352.16;120062;1150;104455;-73
2021/01/25 19:03:08;;;;;;;36.73;16.77;;;;;;;-0.28;78.20;97362.68;119959;1151;104581;-74
2021/01/25 19:05:40;;;;;;;34.77;14.33;;;;;;;-0.29;78.20;97366.22;120073;1150;104373;-73
2021/01/25 19:08:12;;;;;;;36.17;18.80;;;;;;;-0.29;78.20;97376.67;120063;1150;104425;-72
2021/01/25 19:10:40;;;;;;;38.20;18.40;;;;;;;-0.28;77.82;97369.70;120116;1150;104451;-74
2021/01/25 19:13:08;;;;;;;31.67;14.33;;;;;;;-0.28;77.76;97367.91;120136;1149;104519;-73
2021/01/25 19:15:42;;;;;;;39.30;18.80;;;;;;;-0.30;78.35;97361.92;120124;1150;104358;-70
2021/01/25 19:18:13;;;;;;;38.73;18.98;;;;;;;-0.29;78.43;97368.01;120092;1150;104471;-72
2021/01/25 19:20:42;;;;;;;42.40;20.50;;;;;;;-0.29;78.06;97358.38;120098;1150;105593;-72
2021/01/25 19:23:12;;;;;;;40.60;20.63;;;;;;;-0.26;78.39;97365.22;120144;1150;104435;-71
2021/01/25 19:25:43;;;;;;;40.17;19.53;;;;;;;-0.25;78.29;97370.35;120097;1150;104394;-70
2021/01/25 19:28:13;;;;;;;41.73;22.00;;;;;;;-0.25;77.71;97370.35;120113;1150;104403;-72
2021/01/25 19:30:40;;;;;;;42.20;21.17;;;;;;;-0.25;78.44;97375.58;120112;1150;104490;-72
2021/01/25 19:33:11;;;;;;;38.30;18.07;;;;;;;-0.24;78.46;97384.27;120126;1151;104478;-69
2021/01/25 19:35:43;;;;;;;41.60;21.35;;;;;;;-0.21;77.83;97391.95;120138;1150;104426;-71
2021/01/25 19:38:10;;;;;;;36.20;16.03;;;;;;;-0.22;78.43;97390.26;120281;1150;104439;-71
2021/01/25 19:40:41;;;;;;;49.03;24.57;;;;;;;-0.22;78.40;97391.09;120103;1150;104371;-71
2021/01/25 19:43:15;;;;;;;36.70;18.03;;;;;;;-0.21;78.51;97391.95;120140;1150;104621;-72
2021/01/25 19:45:46;;;;;;;38.83;19.20;;;;;;;-0.21;77.81;97397.17;120117;1150;104343;-73
2021/01/25 19:48:18;;;;;;;39.90;20.65;;;;;;;-0.21;78.50;97403.23;120100;1150;104489;-74
2021/01/25 19:50:48;;;;;;;43.30;21.10;;;;;;;-0.20;78.42;97398.83;119975;1150;104493;-73
2021/01/25 19:53:17;;;;;;;36.30;18.00;;;;;;;-0.20;78.00;97412.75;119929;1150;104447;-74
2021/01/25 19:55:45;;;;;;;32.87;14.43;;;;;;;-0.20;77.90;97414.50;119916;1150;104479;-71
2021/01/25 19:58:14;;;;;;;30.90;13.83;;;;;;;-0.20;78.52;97417.98;121564;1149;104342;-74
2021/01/25 20:00:42;;;;;;;33.33;14.77;;;;;;;-0.19;78.02;97435.34;119982;1150;104523;-72
2021/01/25 20:03:10;;;;;;;40.20;18.50;;;;;;;-0.19;78.46;97429.26;120210;1150;104341;-73
2021/01/25 20:05:38;;;;;;;40.87;20.90;;;;;;;-0.18;78.03;97437.03;120111;1151;104407;-72
2021/01/25 20:08:06;;;;;;;34.90;17.33;;;;;;;-0.17;78.47;97438.72;120119;1150;104457;-71
2021/01/25 20:10:36;;;;;;;38.97;19.27;;;;;;;-0.17;78.56;97436.10;120013;1151;103395;-73
2021/01/25 20:13:06;;;;;;;39.43;20.33;;;;;;;-0.17;77.82;97443.95;120120;1151;104490;-73
2021/01/25 20:15:39;;;;;;;37.73;18.20;;;;;;;-0.16;78.05;97439.55;120117;1150;104449;-72
2021/01/25 20:18:11;;;;;;;38.20;18.90;;;;;;;-0.18;78.26;97441.40;120284;1150;104313;-71
2021/01/25 20:20:38;;;;;;;34.37;17.03;;;;;;;-0.18;78.24;97441.40;120154;1150;104375;-73
2021/01/25 20:23:26;;;;;;;34.17;15.67;;;;;;;-0.18;78.58;97438.78;120020;1151;104446;-71